Aérodrome :
LOGIN :

S'inscrire | Disclaimer

   EN    FR    IT 

 










Légende :    VFR   VFR Marginal   IFR   IFR Intensif   IFR Très Intensif
Visi : 
Plafond : 
>= 8 km
>= 3000ft
5 à 8 km
1000 à 3000 ft
1500m à 5 km
500 à 1000 ft
800 à 1500m
200 à 500 ft
< 800m
< 200 ft
Symboles :   Orages  Brouillard  Fortes neiges  Fortes précipitations  Vent > 20 kt
SIGMETs :   Divers  Orages  Givrage  Turbulence  Onde Orograph.  Cendres Volcan.






- Altitude de l'aérodrome : 412 ft
- Code IATA : ORE


LFOJ - Orleans

DERNIER METAR :
  • 190530Z AUTO 28001KT 0700 R25/1400U FG FEW003 BKN047 01/01 Q1017 BECMG 0450 FG VV///

METARs EXPIRÉS :
  • 190500Z AUTO 27002KT 1600 1000 R25/1300U BR OVC048 01/01 Q1017 BECMG 0450 FG VV///
  • 190430Z AUTO 28003KT 1200 0800 R25/1700U BCFG FEW001 BKN048 01/01 Q1017 BECMG 0450 FG VV///
  • 190400Z AUTO 29003KT 1400 0800 R25/P2000 BCFG FEW002 BKN047 01/01 Q1017
  • 190330Z AUTO 00000KT 1000 0800 R25/1000U BCFG FEW001 SCT047 02/02 Q1017
  • 190300Z AUTO 00000KT 4500 BR NSC 03/02 Q1017

TAF AMD TAF LFOJ
Valide du 19 à 04h jusqu'au 20 à 03h UTC


190400Z 1904/2003 29003KT 2200 BCFG SCT002 BKN045
BECMG 1904/1906 0450 FG VV///
PROB30
TEMPO 1904/1908 FZFG
BECMG 1912/1914 SCT008 BKN011
BECMG 1919/1921 4000 BR BKN002
BECMG 1922/1924 0400 FG VV///



MET'MAP, la Météo Aéronautique d'un coup d'oeil ! - Copyright ORBIFLY Décembre 2007 - Disclaimer

ORBIFLY MET'MAP TEAM :

Programmation & Développement : Alexandra Zaïnal
Conception & Développement : Baudouin d'Aumeries
Co-Programmation & Développement : Marc-Olivier Méhu
Soutien technique & logistique : Manuel Goepfert

Contact : metmap@orbifly.com




SOURCES & CREDITS :

   NOAA